Time;durP1;ratioP1;P1;durP2;ratioP2;P2;SDS_P1;SDS_P2;PMS_P1;PMS_P2;Temp;Humidity;BMP_temperature;BMP_pressure;BME280_temperature;BME280_humidity;BME280_pressure;Samples;Min_cycle;Max_cycle;Signal;HPM_P1;HPM_P2
2022/12/01 00:01:16;;;;;;;19.30;11.43;;;7.30;91.60;;;7.73;57.79;99249.56;4949795;28;122891;-73
2022/12/01 00:03:42;;;;;;;21.20;10.87;;;7.20;91.50;;;7.75;57.91;99239.09;4948174;28;123801;-74
2022/12/01 00:06:15;;;;;;;28.27;14.37;;;7.30;91.60;;;7.78;57.64;99245.97;4950871;28;115161;-74
2022/12/01 00:10:24;;;;;;;23.10;11.40;;;7.30;91.50;;;7.75;57.55;99233.59;4969839;28;114875;-74
2022/12/01 00:11:32;;;;;;;24.60;12.33;;;7.30;91.50;;;7.70;57.73;99248.19;4954817;28;124300;-74
2022/12/01 00:13:59;;;;;;;23.37;12.20;;;7.20;91.50;;;7.69;57.87;99241.06;4948557;28;122954;-74
2022/12/01 00:16:25;;;;;;;25.13;13.00;;;7.20;91.50;;;7.69;57.88;99251.25;4968801;28;114156;-74
2022/12/01 00:18:52;;;;;;;22.37;12.53;;;7.20;91.50;;;7.67;57.90;99236.94;4968509;28;113208;-73
2022/12/01 00:21:21;;;;;;;23.60;12.97;;;7.20;91.60;;;7.67;57.78;99239.69;4953594;28;123056;-73
2022/12/01 00:23:53;;;;;;;27.17;14.63;;;7.20;91.60;;;7.70;57.84;99239.13;4950173;28;123613;-74
2022/12/01 00:26:21;;;;;;;24.53;12.90;;;7.20;91.60;;;7.69;58.09;99240.25;4947958;28;114008;-74
2022/12/01 00:28:55;;;;;;;30.67;15.87;;;7.20;91.60;;;7.69;57.88;99234.75;4967154;28;114125;-74
2022/12/01 00:31:23;;;;;;;24.47;12.93;;;7.20;91.50;;;7.65;58.17;99239.97;4966044;28;123937;-74
2022/12/01 00:33:49;;;;;;;27.50;14.87;;;7.10;91.60;;;7.64;58.25;99243.03;4950221;28;123752;-74
2022/12/01 00:36:16;;;;;;;23.07;12.93;;;7.20;91.60;;;7.62;58.04;99240.53;4968729;28;114282;-74
2022/12/01 00:38:43;;;;;;;21.50;12.03;;;7.10;91.60;;;7.61;57.88;99238.91;4969356;28;113982;-74
2022/12/01 00:41:10;;;;;;;26.50;12.50;;;7.40;91.70;;;7.58;57.90;99242.22;4970236;28;124130;-74
2022/12/01 00:43:36;;;;;;;26.27;12.33;;;7.90;91.90;;;7.58;58.11;99241.41;4967704;28;124168;-74
2022/12/01 00:46:03;;;;;;;25.37;13.63;;;7.10;91.70;;;7.60;58.49;99241.94;4967625;28;114213;-75
2022/12/01 00:48:29;;;;;;;28.20;13.90;;;7.10;91.70;;;7.60;58.43;99242.75;4953312;28;114403;-74
2022/12/01 00:50:56;;;;;;;28.30;14.50;;;7.10;91.70;;;7.62;58.05;99245.22;4959914;28;124097;-74
2022/12/01 00:53:23;;;;;;;27.43;14.00;;;7.10;91.70;;;7.59;58.15;99243.03;4970105;28;123670;-73
2022/12/01 00:55:50;;;;;;;25.50;14.07;;;7.10;91.70;;;7.56;58.31;99243.59;4967227;28;115781;-74
2022/12/01 00:58:16;;;;;;;22.00;13.53;;;7.10;91.70;;;7.57;58.14;99248.00;4968681;28;114712;-74
2022/12/01 01:00:43;;;;;;;23.67;13.70;;;7.10;91.80;;;7.58;57.92;99250.47;4966179;28;123994;-74
2022/12/01 01:03:10;;;;;;;21.93;12.97;;;7.10;91.70;;;7.58;58.12;99244.16;4952873;28;122755;-74
2022/12/01 01:05:42;;;;;;;25.80;14.27;;;7.10;91.70;;;7.59;58.02;99245.78;4968626;28;114089;-74
2022/12/01 01:08:11;;;;;;;25.73;13.33;;;7.10;91.70;;;7.61;58.08;99246.34;4968053;28;114156;-74
2022/12/01 01:10:39;;;;;;;23.53;12.67;;;7.10;91.70;;;7.61;58.52;99244.41;4933828;28;122861;-74
2022/12/01 01:13:06;;;;;;;24.83;13.37;;;7.10;91.70;;;7.63;58.11;99246.84;4947770;28;124293;-74
2022/12/01 01:15:34;;;;;;;29.10;15.50;;;7.10;91.60;;;7.59;58.16;99245.78;4966183;28;113951;-74
2022/12/01 01:18:00;;;;;;;26.27;14.43;;;7.10;91.60;;;7.58;57.86;99249.66;4967468;28;113155;-74
2022/12/01 01:20:27;;;;;;;23.20;13.70;;;7.10;91.50;;;7.50;57.70;99259.31;4966263;28;124163;-74
2022/12/01 01:22:54;;;;;;;26.67;14.17;;;7.00;91.40;;;7.45;57.99;99251.88;4967786;28;123674;-74
2022/12/01 01:25:21;;;;;;;22.97;12.70;;;7.00;91.50;;;7.43;57.65;99256.03;4953264;28;114046;-74
2022/12/01 01:27:48;;;;;;;22.50;12.17;;;6.90;91.40;;;7.44;57.70;99258.50;4968799;28;114065;-74
2022/12/01 01:30:15;;;;;;;18.63;11.47;;;6.90;91.50;;;7.45;57.59;99257.38;4953987;28;123491;-74
2022/12/01 01:32:41;;;;;;;23.33;13.50;;;7.00;91.50;;;7.49;57.81;99257.63;4968651;28;123653;-74
2022/12/01 01:35:08;;;;;;;25.93;12.67;;;7.00;91.50;;;7.52;57.87;99259.81;4953939;28;113705;-74
2022/12/01 01:37:35;;;;;;;24.53;14.23;;;7.00;91.40;;;7.51;57.40;99249.94;4968912;28;113949;-74
2022/12/01 01:40:01;;;;;;;24.00;14.00;;;7.00;91.20;;;7.46;57.55;99253.53;4968168;28;124316;-74
2022/12/01 01:42:28;;;;;;;23.70;13.73;;;7.00;91.30;;;7.42;57.47;99260.69;4967832;28;124378;-74
2022/12/01 01:44:58;;;;;;;24.97;13.20;;;6.90;91.20;;;7.39;57.39;99257.66;4965094;28;115063;-74
2022/12/01 01:47:34;;;;;;;24.47;13.40;;;6.80;91.20;;;7.38;57.40;99261.53;4967151;28;114416;-74
2022/12/01 01:50:10;;;;;;;23.63;13.63;;;6.90;91.30;;;7.38;57.25;99261.53;4982926;28;124083;-74
2022/12/01 01:52:54;;;;;;;22.70;12.73;;;6.90;91.20;;;7.36;57.28;99259.09;4956208;28;123449;-74
2022/12/01 01:55:21;;;;;;;23.07;12.63;;;6.90;91.20;;;7.31;57.38;99261.84;4959466;28;114198;-74
2022/12/01 01:57:48;;;;;;;24.00;13.33;;;6.80;91.20;;;7.29;57.17;99275.03;4970393;28;113924;-73
2022/12/01 02:00:18;;;;;;;22.10;12.53;;;6.90;91.10;;;7.30;57.22;99261.00;4973540;28;123427;-73
2022/12/01 02:02:47;;;;;;;23.80;12.40;;;6.80;91.20;;;7.32;57.24;99263.47;4964495;28;123772;-74
2022/12/01 02:05:27;;;;;;;22.70;12.90;;;6.80;91.20;;;7.33;57.05;99256.06;4981272;28;114259;-75
2022/12/01 02:07:57;;;;;;;21.80;11.67;;;6.80;91.10;;;7.31;57.20;99261.84;4959922;28;113905;-74
2022/12/01 02:11:04;;;;;;;19.53;10.73;;;6.80;91.10;;;7.34;57.04;99258.53;4952221;28;123695;-75
2022/12/01 02:14:13;;;;;;;24.90;13.30;;;6.80;91.10;;;7.33;57.28;99248.63;4982900;28;124075;-75
2022/12/01 02:16:55;;;;;;;22.50;11.97;;;6.80;91.10;;;7.28;57.19;99248.63;4975419;28;114104;-75
2022/12/01 02:19:42;;;;;;;23.53;12.23;;;6.80;91.00;;;7.24;57.03;99248.38;4965698;28;114014;-75
2022/12/01 02:22:59;;;;;;;23.40;13.13;;;6.80;91.10;;;7.19;56.73;99250.31;4975049;28;123760;-75
2022/12/01 02:26:02;;;;;;;25.70;12.70;;;6.70;91.00;;;7.17;57.27;99250.59;4903568;28;123704;-74
2022/12/01 02:29:21;;;;;;;18.00;11.43;;;6.70;91.10;;;7.20;57.37;99250.06;4889727;28;114762;-74
2022/12/01 02:32:03;;;;;;;21.27;11.33;;;6.70;91.10;;;7.21;57.32;99242.63;4907870;28;114220;-74
2022/12/01 02:35:12;;;;;;;24.20;12.33;;;6.70;91.10;;;7.24;57.53;99240.13;4928307;28;124453;-75
2022/12/01 02:37:54;;;;;;;19.40;10.50;;;6.70;91.10;;;7.27;57.06;99245.06;4931142;28;122214;-74
2022/12/01 02:40:30;;;;;;;24.53;12.20;;;6.80;91.10;;;7.33;57.40;99253.31;4918561;28;115461;-74
2022/12/01 02:43:04;;;;;;;22.53;12.40;;;6.80;91.00;;;7.34;57.30;99253.03;4911495;28;115568;-76
2022/12/01 02:45:45;;;;;;;20.37;11.33;;;6.90;91.00;;;7.36;57.17;99241.75;4908248;28;123809;-74
2022/12/01 02:48:24;;;;;;;21.10;11.87;;;6.90;91.00;;;7.36;56.81;99241.75;4894159;28;123492;-74
2022/12/01 02:50:53;;;;;;;19.80;11.30;;;7.00;91.00;;;7.33;57.02;99247.81;4889669;28;114322;-73
2022/12/01 02:53:20;;;;;;;22.20;12.07;;;6.80;90.90;;;7.33;56.45;99237.63;4911234;28;113816;-74
2022/12/01 02:55:50;;;;;;;20.80;11.07;;;6.90;90.90;;;7.34;56.67;99239.28;4911501;28;123273;-74
2022/12/01 02:58:17;;;;;;;27.30;13.60;;;6.90;90.90;;;7.37;56.68;99255.22;4927088;28;123908;-73
2022/12/01 03:01:01;;;;;;;19.73;11.10;;;6.80;90.80;;;7.37;56.46;99255.22;4929462;28;113378;-74
2022/12/01 03:04:11;;;;;;;25.70;12.93;;;6.80;90.80;;;7.35;56.61;99257.41;4976637;28;114177;-74
2022/12/01 03:06:48;;;;;;;22.87;12.47;;;6.80;91.10;;;7.34;56.82;99252.22;4974320;28;124096;-74
2022/12/01 03:09:21;;;;;;;21.40;12.37;;;6.80;90.80;;;7.33;56.60;99245.88;4944509;28;122787;-74
2022/12/01 03:12:13;;;;;;;20.60;11.40;;;6.80;90.80;;;7.32;56.68;99241.50;4969246;28;113996;-74
2022/12/01 03:15:22;;;;;;;21.63;11.47;;;6.80;90.80;;;7.26;56.50;99243.44;4955878;28;113880;-74
2022/12/01 03:18:18;;;;;;;24.80;13.33;;;6.80;90.70;;;7.24;56.67;99234.66;4962973;28;126272;-74
2022/12/01 03:20:58;;;;;;;19.50;10.80;;;6.80;90.80;;;7.27;56.67;99236.81;4948784;28;123850;-74
2022/12/01 03:23:30;;;;;;;23.37;12.90;;;6.80;90.80;;;7.25;56.59;99236.31;4961968;28;113869;-74
2022/12/01 03:26:00;;;;;;;21.00;11.50;;;6.80;90.60;;;7.21;56.88;99245.38;4954290;28;114090;-73
2022/12/01 03:28:32;;;;;;;24.77;12.83;;;6.80;90.70;;;7.24;56.72;99240.13;4956231;28;123606;-74
2022/12/01 03:31:06;;;;;;;30.03;13.27;;;6.80;90.80;;;7.26;56.73;99242.63;4959476;28;122628;-74
2022/12/01 03:34:04;;;;;;;24.10;12.80;;;6.80;90.70;;;7.25;56.60;99238.22;4973371;28;114339;-74
2022/12/01 03:36:49;;;;;;;20.13;11.07;;;6.80;90.70;;;7.20;56.91;99238.22;4951400;28;114845;-74
2022/12/01 03:39:22;;;;;;;26.13;12.80;;;6.70;90.60;;;7.16;56.51;99242.66;4948808;28;123932;-74
2022/12/01 03:41:59;;;;;;;19.97;11.30;;;6.70;90.70;;;7.15;56.14;99241.00;4945795;28;124011;-74
2022/12/01 03:44:35;;;;;;;19.73;11.70;;;6.70;90.60;;;7.11;56.63;99240.72;4949660;28;114190;-74
2022/12/01 03:47:14;;;;;;;21.53;11.57;;;6.60;90.60;;;7.07;56.51;99243.22;4952268;28;113951;-74
2022/12/01 03:49:42;;;;;;;26.47;14.67;;;6.60;90.60;;;7.00;56.33;99234.44;4955464;28;124055;-74
2022/12/01 03:52:37;;;;;;;21.00;11.90;;;6.70;90.60;;;6.96;56.46;99241.59;4936470;28;124894;-74
2022/12/01 03:55:23;;;;;;;24.23;13.20;;;6.50;90.60;;;6.90;56.83;99245.44;4949504;28;114591;-75
2022/12/01 03:58:12;;;;;;;23.63;12.70;;;6.40;90.60;;;6.83;56.96;99245.72;4939496;28;113658;-75
2022/12/01 04:00:40;;;;;;;23.23;13.00;;;6.40;90.60;;;6.77;56.80;99235.88;4945223;28;123046;-75
2022/12/01 04:03:07;;;;;;;27.27;15.10;;;6.40;90.70;;;6.78;57.30;99242.19;4956128;28;123833;-75
2022/12/01 04:05:34;;;;;;;18.67;9.77;;;6.50;90.80;;;6.80;57.14;99243.53;4951522;28;113168;-74
2022/12/01 04:08:01;;;;;;;19.60;11.60;;;6.30;90.70;;;6.83;57.17;99239.44;4964880;28;112890;-75
2022/12/01 04:10:27;;;;;;;22.53;12.40;;;6.50;90.80;;;6.85;57.09;99242.69;4938980;28;122931;-75
2022/12/01 04:12:58;;;;;;;19.67;11.23;;;6.40;90.80;;;6.88;56.92;99239.41;4970216;28;124023;-75
2022/12/01 04:15:26;;;;;;;20.13;11.80;;;6.40;90.70;;;6.88;56.67;99242.16;4968578;28;114093;-75
2022/12/01 04:17:52;;;;;;;28.70;14.70;;;6.40;90.70;;;6.83;56.53;99245.72;4951350;28;114354;-75
2022/12/01 04:20:20;;;;;;;22.50;13.60;;;6.40;90.60;;;6.76;56.72;99245.19;4956777;28;122800;-74
2022/12/01 04:22:47;;;;;;;18.03;11.47;;;6.90;90.90;;;6.76;56.90;99247.13;4952552;28;123173;-74
2022/12/01 04:25:15;;;;;;;21.00;11.63;;;6.40;90.80;;;6.77;56.76;99246.84;4978866;28;115251;-74
2022/12/01 04:27:42;;;;;;;23.23;12.40;;;6.50;90.80;;;6.78;57.19;99244.91;4972722;28;114622;-75
2022/12/01 04:30:10;;;;;;;22.13;12.70;;;6.30;90.80;;;6.78;57.01;99245.75;4988868;28;124218;-75
2022/12/01 04:32:42;;;;;;;27.57;13.57;;;6.30;90.80;;;6.77;56.66;99241.34;4979361;28;123299;-75
2022/12/01 04:35:11;;;;;;;26.97;13.07;;;6.30;90.70;;;6.75;56.59;99249.03;4995128;28;113198;-76
2022/12/01 04:37:38;;;;;;;21.00;11.23;;;6.30;90.80;;;6.78;57.28;99243.00;4994941;28;113688;-74
2022/12/01 04:40:06;;;;;;;21.40;12.10;;;6.30;90.80;;;6.82;57.53;99243.25;4991711;28;124404;-74
2022/12/01 04:42:32;;;;;;;21.67;12.17;;;6.30;90.80;;;6.88;56.94;99252.31;4988100;28;123069;-74
2022/12/01 04:44:59;;;;;;;20.80;11.57;;;6.40;90.80;;;6.89;57.16;99248.47;4949393;28;113273;-74
2022/12/01 04:47:25;;;;;;;18.27;11.20;;;6.40;90.80;;;6.93;56.89;99253.16;4975606;28;113225;-74
2022/12/01 04:49:53;;;;;;;24.50;13.00;;;6.70;90.90;;;6.97;56.68;99251.47;4967267;28;123324;-74
2022/12/01 04:52:19;;;;;;;20.93;11.73;;;6.50;90.80;;;7.00;57.02;99239.94;4967445;28;123720;-73
2022/12/01 04:54:46;;;;;;;23.33;12.00;;;6.90;90.90;;;7.03;56.92;99244.84;4960505;28;114361;-74
2022/12/01 04:57:12;;;;;;;25.00;14.17;;;6.50;90.80;;;7.06;56.62;99254.47;4973895;28;113184;-74
2022/12/01 04:59:39;;;;;;;22.97;13.80;;;6.60;90.70;;;7.02;56.25;99254.22;4967639;28;123451;-74
2022/12/01 05:02:05;;;;;;;26.20;13.20;;;6.50;90.60;;;6.98;56.31;99253.09;4929281;28;124554;-74
2022/12/01 05:04:37;;;;;;;23.20;13.17;;;6.50;90.60;;;6.96;56.76;99255.34;4955282;28;114803;-74
2022/12/01 05:07:04;;;;;;;20.23;11.30;;;6.40;90.60;;;6.94;56.40;99256.72;4973430;28;114343;-74
2022/12/01 05:09:30;;;;;;;24.57;12.87;;;7.60;91.10;;;6.90;56.43;99253.66;4960747;28;124234;-74
2022/12/01 05:11:58;;;;;;;23.80;12.47;;;6.90;90.80;;;6.91;56.50;99252.59;4973223;28;123697;-74
2022/12/01 05:14:24;;;;;;;23.80;12.93;;;6.40;90.60;;;6.92;57.12;99247.91;4974570;28;115382;-74
2022/12/01 05:16:51;;;;;;;26.87;12.57;;;6.40;90.60;;;6.93;56.51;99260.53;4987933;28;114888;-74
2022/12/01 05:22:06;;;;;;;26.43;13.60;;;6.50;90.70;;;6.95;56.72;99259.16;4980222;28;124385;-74
2022/12/01 05:24:32;;;;;;;25.70;13.20;;;6.50;90.60;;;6.97;56.55;99262.47;4984308;28;114036;-74
2022/12/01 05:26:59;;;;;;;23.67;11.83;;;6.50;90.60;;;6.98;56.67;99261.34;4985008;28;114353;-75
2022/12/01 05:29:25;;;;;;;26.13;13.23;;;6.50;90.50;;;7.00;56.44;99261.91;4962831;28;123988;-75
2022/12/01 05:31:51;;;;;;;20.37;11.43;;;6.50;90.60;;;7.01;56.83;99266.31;4985483;28;123885;-74
2022/12/01 05:34:18;;;;;;;29.23;14.50;;;6.50;90.60;;;7.03;56.79;99266.84;4970152;28;114072;-75
2022/12/01 05:36:44;;;;;;;23.60;13.00;;;6.60;90.60;;;7.04;56.71;99263.00;4984386;28;114235;-75
2022/12/01 05:39:11;;;;;;;23.87;15.40;;;6.50;90.50;;;7.04;56.31;99267.69;4963630;28;124011;-75
2022/12/01 05:41:37;;;;;;;23.40;13.77;;;6.50;90.50;;;7.00;56.55;99261.09;4967969;28;123919;-73
2022/12/01 05:44:04;;;;;;;21.37;13.23;;;6.50;90.50;;;6.99;56.92;99265.75;4971929;28;113303;-74
2022/12/01 05:46:30;;;;;;;21.97;12.10;;;6.50;90.60;;;6.99;56.36;99263.00;4979970;28;113946;-74
2022/12/01 05:48:57;;;;;;;24.40;12.47;;;6.50;90.60;;;7.01;57.06;99257.22;4973371;28;124141;-74
2022/12/01 05:51:24;;;;;;;28.70;16.13;;;6.90;90.80;;;6.97;56.63;99262.47;4975685;28;123817;-74
2022/12/01 05:53:50;;;;;;;25.70;15.30;;;6.50;90.60;;;6.96;56.54;99263.56;4973046;28;114351;-73
2022/12/01 05:56:17;;;;;;;21.70;12.53;;;6.50;90.60;;;6.95;56.43;99261.09;4972596;28;114279;-73
2022/12/01 05:58:44;;;;;;;21.30;12.17;;;6.40;90.60;;;6.94;56.41;99263.03;4978797;28;124772;-72
2022/12/01 06:01:10;;;;;;;24.57;13.13;;;6.40;90.60;;;6.93;56.83;99266.88;4974558;28;123885;-75
2022/12/01 06:03:37;;;;;;;28.40;14.20;;;6.50;90.70;;;6.93;56.45;99264.13;4963286;28;115090;-74
2022/12/01 06:06:04;;;;;;;21.90;12.97;;;6.40;90.60;;;6.91;56.61;99265.50;4986380;28;114935;-73
2022/12/01 06:08:30;;;;;;;28.13;15.60;;;6.40;90.60;;;6.91;56.37;99262.75;4984166;28;123988;-74
2022/12/01 06:11:00;;;;;;;26.00;14.27;;;6.40;90.60;;;6.90;56.53;99278.41;4979722;28;123729;-74
2022/12/01 06:13:27;;;;;;;24.13;13.50;;;6.40;90.60;;;6.88;56.80;99280.63;4968134;28;115455;-74
2022/12/01 06:16:01;;;;;;;26.73;14.03;;;6.40;90.60;;;6.91;56.57;99268.25;4955403;28;114405;-73
2022/12/01 06:18:34;;;;;;;23.93;12.83;;;6.40;90.60;;;6.92;56.91;99270.72;4960217;28;123927;-74
2022/12/01 06:21:03;;;;;;;29.60;14.60;;;6.60;90.80;;;6.96;56.73;99280.06;4974579;28;123535;-74
2022/12/01 06:23:29;;;;;;;24.63;12.10;;;6.50;90.70;;;6.98;56.87;99269.59;4976650;28;113752;-74
2022/12/01 06:25:56;;;;;;;26.70;13.77;;;7.70;91.20;;;6.99;56.94;99276.75;4976353;28;113933;-73
2022/12/01 06:28:22;;;;;;;24.33;13.63;;;6.50;90.70;;;7.02;57.42;99273.44;4968162;28;123918;-73
2022/12/01 06:30:49;;;;;;;25.43;12.03;;;6.50;90.80;;;7.06;57.08;99270.97;4946424;28;123300;-74
2022/12/01 06:33:15;;;;;;;31.23;16.17;;;6.50;90.80;;;7.06;57.01;99271.78;4970196;28;114002;-74
2022/12/01 06:35:42;;;;;;;22.70;12.30;;;6.60;90.90;;;7.07;58.02;99278.94;4968782;28;113904;-74
2022/12/01 06:38:08;;;;;;;24.90;12.80;;;6.50;91.10;;;7.10;57.54;99282.22;4951742;28;123900;-74
2022/12/01 06:40:35;;;;;;;25.03;14.17;;;6.50;91.20;;;7.10;57.40;99287.72;4972072;28;123811;-74
2022/12/01 06:43:02;;;;;;;27.73;16.27;;;6.60;91.20;;;7.07;57.12;99284.44;4969146;28;114201;-73
2022/12/01 06:45:30;;;;;;;25.63;14.80;;;6.50;91.00;;;7.02;56.69;99289.13;4964704;28;113842;-74
2022/12/01 06:47:57;;;;;;;23.43;14.33;;;6.50;91.00;;;6.95;56.75;99291.31;4949960;28;124051;-75
2022/12/01 06:50:24;;;;;;;21.47;12.53;;;6.40;90.80;;;6.90;57.36;99294.88;4970253;28;123077;-76
2022/12/01 06:52:51;;;;;;;25.60;13.80;;;6.40;90.90;;;6.88;57.42;99297.09;4950712;28;114703;-75
2022/12/01 06:55:18;;;;;;;27.33;13.90;;;6.40;90.90;;;6.83;57.29;99294.34;4970991;28;115468;-75
2022/12/01 06:57:44;;;;;;;25.43;15.07;;;6.30;90.90;;;6.80;57.47;99295.72;4968180;28;123978;-75
2022/12/01 07:00:12;;;;;;;28.13;14.80;;;7.00;91.20;;;6.76;57.59;99293.78;4967102;28;123855;-75
2022/12/01 07:02:38;;;;;;;27.13;14.63;;;6.30;90.90;;;6.74;57.58;99295.97;4950220;28;114287;-76
2022/12/01 07:05:05;;;;;;;24.30;12.87;;;6.20;90.90;;;6.76;57.37;99296.53;4970972;28;113873;-75
2022/12/01 07:07:36;;;;;;;31.83;15.37;;;6.20;91.00;;;6.78;57.46;99300.66;4971961;28;123577;-75
2022/12/01 07:10:09;;;;;;;27.40;16.20;;;6.60;91.20;;;6.76;57.38;99305.59;4946597;28;123098;-74
2022/12/01 07:12:37;;;;;;;27.87;14.77;;;7.50;91.60;;;6.72;57.79;99303.69;4945773;28;113430;-75
2022/12/01 07:15:23;;;;;;;24.50;12.40;;;6.20;91.00;;;6.73;57.32;99302.59;4939997;28;112906;-74
2022/12/01 07:17:51;;;;;;;28.40;14.40;;;6.20;91.00;;;6.73;57.51;99310.81;4966348;28;124159;-74
2022/12/01 07:20:17;;;;;;;23.50;13.37;;;6.20;91.00;;;6.74;57.75;99312.47;4970478;28;123663;-75
2022/12/01 07:22:44;;;;;;;28.00;14.57;;;6.20;91.00;;;6.76;57.39;99315.75;4969118;28;114567;-74
2022/12/01 07:25:10;;;;;;;21.80;13.87;;;6.30;91.00;;;6.73;57.33;99311.63;4970595;28;113939;-75
2022/12/01 07:27:37;;;;;;;30.67;15.27;;;6.20;90.90;;;6.67;57.69;99310.00;4938030;28;122936;-75
2022/12/01 07:30:04;;;;;;;24.60;12.87;;;6.40;91.10;;;6.63;58.00;99308.88;4966796;28;123641;-75
2022/12/01 07:32:31;;;;;;;21.70;12.03;;;6.20;91.40;;;6.66;57.45;99315.75;4974504;28;114359;-74
2022/12/01 07:34:58;;;;;;;25.80;13.60;;;6.20;91.10;;;6.69;57.75;99320.69;4972308;28;113780;-74
2022/12/01 07:37:24;;;;;;;21.53;11.97;;;6.50;91.20;;;6.70;57.37;99316.88;4953823;28;123259;-75
2022/12/01 07:39:50;;;;;;;24.57;14.40;;;6.90;91.40;;;6.69;57.47;99315.19;4969753;28;123889;-74
2022/12/01 07:42:17;;;;;;;24.00;13.87;;;6.20;91.10;;;6.70;57.96;99322.38;4968448;28;115321;-75
2022/12/01 07:44:43;;;;;;;24.90;13.50;;;6.20;91.20;;;6.73;57.88;99321.81;4962110;28;114909;-74
2022/12/01 07:47:10;;;;;;;24.67;14.23;;;6.20;91.10;;;6.74;57.43;99324.25;4963671;28;123343;-74
2022/12/01 07:49:37;;;;;;;21.10;12.20;;;6.30;91.20;;;6.77;57.52;99321.00;4948042;28;122702;-75
2022/12/01 07:52:03;;;;;;;23.77;13.60;;;6.30;91.20;;;6.80;57.75;99317.69;4970126;28;114192;-75
2022/12/01 07:54:30;;;;;;;25.70;13.17;;;6.30;91.10;;;6.82;57.54;99318.25;4940782;28;113974;-75
2022/12/01 07:56:58;;;;;;;28.67;13.97;;;6.30;91.10;;;6.82;57.85;99320.16;4970096;28;123137;-75
2022/12/01 07:59:25;;;;;;;24.60;14.40;;;6.50;91.20;;;6.82;57.55;99315.50;4965943;28;123838;-75
2022/12/01 08:01:51;;;;;;;25.93;13.53;;;6.30;91.10;;;6.80;57.97;99322.38;4952708;28;113684;-74
2022/12/01 08:04:18;;;;;;;21.90;12.93;;;6.40;91.10;;;6.79;57.50;99326.19;4972437;28;114100;-76
2022/12/01 08:06:44;;;;;;;22.13;12.43;;;6.30;91.10;;;6.77;57.70;99315.50;4968113;28;123975;-75
2022/12/01 08:09:11;;;;;;;22.73;12.80;;;6.40;91.10;;;6.77;57.60;99320.16;4969717;28;122994;-75
2022/12/01 08:11:37;;;;;;;24.67;14.00;;;6.30;91.10;;;6.81;58.10;99318.50;4952503;28;113626;-73
2022/12/01 08:14:04;;;;;;;19.10;11.10;;;6.30;91.20;;;6.83;57.47;99325.38;4955334;28;113549;-74
2022/12/01 08:16:30;;;;;;;23.23;12.43;;;6.40;91.20;;;6.84;58.06;99326.19;4969464;28;123607;-77
2022/12/01 08:18:57;;;;;;;21.30;12.00;;;6.50;91.20;;;6.85;57.62;99325.09;4953759;28;124021;-76
2022/12/01 08:21:24;;;;;;;23.40;13.67;;;6.40;91.10;;;6.85;57.68;99328.69;4948194;28;114453;-74
2022/12/01 08:23:56;;;;;;;25.10;14.57;;;6.40;91.10;;;6.88;58.43;99338.31;4951082;28;114241;-75
2022/12/01 08:26:25;;;;;;;23.07;14.13;;;6.40;91.50;;;6.93;58.79;99345.69;4967876;28;123419;-74
2022/12/01 08:28:51;;;;;;;26.67;12.97;;;7.80;92.20;;;6.94;58.07;99336.38;4949576;28;123725;-73
2022/12/01 08:31:25;;;;;;;27.80;14.40;;;6.40;91.60;;;6.95;58.49;99341.56;4960924;28;115188;-77
2022/12/01 08:33:53;;;;;;;29.00;15.60;;;6.40;91.60;;;6.97;58.02;99341.31;4949543;28;115135;-74
2022/12/01 08:36:20;;;;;;;25.73;13.30;;;6.40;91.60;;;6.95;57.83;99338.81;4952439;28;124008;-74
2022/12/01 08:38:51;;;;;;;24.23;13.70;;;6.40;91.40;;;6.97;58.15;99341.31;4950594;28;123691;-75
2022/12/01 08:41:18;;;;;;;21.97;12.57;;;6.40;91.50;;;6.99;57.93;99344.63;4953776;28;113160;-75
2022/12/01 08:43:45;;;;;;;24.43;13.60;;;6.50;91.50;;;7.01;58.25;99345.13;4951582;28;113949;-74
2022/12/01 08:46:13;;;;;;;23.70;12.77;;;6.50;91.50;;;7.02;57.98;99339.38;4926045;28;123030;-74
2022/12/01 08:48:40;;;;;;;25.23;13.00;;;6.50;91.50;;;7.06;57.86;99353.38;4932785;28;122815;-75
2022/12/01 08:51:16;;;;;;;22.23;13.87;;;6.50;91.40;;;7.07;57.54;99344.06;4969283;28;114562;-75
2022/12/01 08:53:46;;;;;;;20.77;11.33;;;6.50;91.40;;;7.05;58.11;99347.06;4951338;28;114305;-74
2022/12/01 08:56:24;;;;;;;25.10;14.43;;;6.50;91.30;;;7.07;57.45;99344.88;4951866;28;124114;-74
2022/12/01 08:58:50;;;;;;;21.40;12.50;;;6.50;91.20;;;7.04;57.59;99339.13;4968744;28;122854;-74
2022/12/01 09:01:18;;;;;;;23.03;13.10;;;6.50;91.20;;;7.01;57.45;99346.00;4970655;28;115035;-75
2022/12/01 09:03:45;;;;;;;23.37;13.20;;;6.50;91.10;;;7.01;57.61;99343.25;4952621;28;113407;-75
2022/12/01 09:06:19;;;;;;;22.47;12.07;;;6.50;91.20;;;7.01;57.65;99347.88;4968880;28;123785;-75
2022/12/01 09:08:46;;;;;;;20.07;12.67;;;6.50;91.20;;;7.00;57.84;99343.50;4966385;28;123805;-75
2022/12/01 09:11:16;;;;;;;22.60;13.57;;;6.50;91.20;;;6.98;57.76;99345.69;4949959;28;113886;-75
2022/12/01 09:13:44;;;;;;;25.57;14.20;;;6.40;91.10;;;6.96;57.71;99351.47;4942735;28;113251;-75
2022/12/01 09:16:15;;;;;;;23.90;13.50;;;6.60;91.20;;;6.98;57.75;99349.25;4917814;28;123600;-75
2022/12/01 09:18:45;;;;;;;28.60;14.03;;;6.50;91.20;;;6.95;57.96;99347.06;4967194;28;124021;-74
2022/12/01 09:21:18;;;;;;;24.60;12.77;;;6.40;91.10;;;6.94;57.68;99341.88;4949185;28;115236;-74
2022/12/01 09:23:45;;;;;;;26.40;14.53;;;6.40;91.20;;;6.95;58.18;99346.25;4952901;28;114267;-74
2022/12/01 09:26:17;;;;;;;24.57;13.40;;;6.40;91.30;;;6.98;57.91;99345.69;4927110;28;124115;-74
2022/12/01 09:29:05;;;;;;;28.87;13.97;;;6.50;91.30;;;7.01;57.37;99342.38;4949896;28;123127;-73
2022/12/01 09:31:32;;;;;;;21.30;13.30;;;6.50;91.30;;;7.01;58.00;99348.72;4871636;28;113102;-76
2022/12/01 09:34:05;;;;;;;24.93;14.83;;;6.50;91.20;;;6.98;57.25;99345.69;4855913;28;113910;-74
2022/12/01 09:36:34;;;;;;;31.97;14.50;;;6.50;91.10;;;6.95;57.56;99351.75;4854699;28;123855;-74
2022/12/01 09:39:03;;;;;;;21.30;12.07;;;6.40;91.20;;;6.93;58.01;99354.78;4870034;28;123273;-74
2022/12/01 09:41:48;;;;;;;27.27;15.00;;;6.40;91.20;;;6.96;57.64;99358.88;4870569;28;114256;-75
2022/12/01 09:44:32;;;;;;;24.70;13.57;;;6.80;91.30;;;6.92;57.64;99355.84;4869619;28;114166;-75
2022/12/01 09:47:29;;;;;;;28.03;13.40;;;6.40;91.20;;;6.94;57.80;99350.91;4847111;28;123400;-76
2022/12/01 09:50:00;;;;;;;24.20;13.70;;;6.40;91.20;;;6.95;57.59;99347.06;4829899;29;97702;-78
2022/12/01 09:52:33;;;;;;;20.03;12.87;;;6.40;91.20;;;6.95;57.58;99346.25;4856700;28;114304;-75
2022/12/01 09:55:02;;;;;;;23.67;13.80;;;6.40;91.20;;;6.95;57.89;99349.81;4845001;29;113278;-74
2022/12/01 09:57:35;;;;;;;24.37;13.27;;;6.50;91.50;;;6.99;58.21;99348.19;4842249;28;124262;-75
2022/12/01 10:00:10;;;;;;;19.93;11.80;;;6.50;91.50;;;7.01;58.26;99340.50;4865918;28;124408;-74
2022/12/01 10:02:46;;;;;;;22.43;12.40;;;6.50;91.50;;;7.09;58.18;99344.59;4870435;28;114310;-75
2022/12/01 10:05:39;;;;;;;24.37;14.33;;;6.50;91.80;;;7.10;58.02;99337.19;4867798;28;113840;-75
2022/12/01 10:08:14;;;;;;;25.83;14.30;;;6.60;91.40;;;7.06;57.96;99336.91;4815396;28;124103;-77
2022/12/01 10:10:48;;;;;;;26.97;15.30;;;6.50;91.40;;;7.02;57.81;99331.13;4870966;28;123861;-76
2022/12/01 10:13:25;;;;;;;23.20;13.10;;;6.50;91.40;;;7.02;57.98;99333.88;4852595;28;114173;-75
2022/12/01 10:16:18;;;;;;;24.90;13.50;;;6.50;91.50;;;7.05;58.22;99322.34;4852899;28;115252;-74
2022/12/01 10:19:09;;;;;;;23.17;13.77;;;6.50;91.50;;;7.10;58.00;99315.22;4870487;28;123227;-76
2022/12/01 10:22:00;;;;;;;20.60;12.33;;;6.60;91.50;;;7.11;58.03;99316.84;4867895;28;123939;-75
2022/12/01 10:24:57;;;;;;;23.80;13.80;;;6.60;91.40;;;7.11;58.06;99314.09;4874813;28;113955;-85
2022/12/01 10:27:48;;;;;;;20.30;11.00;;;6.60;91.40;;;7.19;58.53;99313.53;4887892;28;114006;-74
2022/12/01 10:30:18;;;;;;;27.87;13.10;;;6.60;91.60;;;7.25;57.97;99312.41;4889528;28;123745;-74
2022/12/01 10:32:53;;;;;;;22.80;12.53;;;6.70;91.60;;;7.33;58.19;99306.34;4873298;28;123864;-75
2022/12/01 10:35:27;;;;;;;19.03;11.90;;;6.80;91.60;;;7.35;57.62;99301.41;4879834;28;114241;-76